Sevilla Aeropuerto en Andalucia

latitud = 37° 25' 00''N | longitud = 005° 52' 45''W
34 metros sobre el nivel del mar |

Fecha, hora, temperatura, viento dirección y velocidad, humedad y presión.

  • 14-10-2018 19:00:00 | 21.20°C | Noroeste |22.00 km/h | 39.00% | 1009.50 hPa
  • 14-10-2018 16:00:00 | 21.30°C | Noroeste |22.00 km/h | 40.00% | 1009.70 hPa
  • 14-10-2018 15:00:00 | 21.30°C | Noroeste |23.00 km/h | 42.00% | 1010.20 hPa
  • 14-10-2018 14:00:00 | 20.30°C | Oeste |24.00 km/h | 47.00% | 1010.40 hPa
  • 14-10-2018 13:00:00 | 19.50°C | Noroeste |27.00 km/h | 54.00% | 1010.80 hPa
  • 14-10-2018 12:00:00 | 18.10°C | Noroeste |30.00 km/h | 60.00% | 1010.70 hPa
  • 14-10-2018 11:00:00 | 17.70°C | Noroeste |32.00 km/h | 69.00% | 1010.30 hPa
  • 14-10-2018 10:00:00 | 17.20°C | Oeste |16.00 km/h | 81.00% | 1009.30 hPa
  • 14-10-2018 09:00:00 | 16.40°C | Oeste |13.00 km/h | 88.00% | 1008.30 hPa
  • 14-10-2018 08:00:00 | 17.30°C | Oeste |18.00 km/h | 91.00% | 1007.50 hPa
  • 14-10-2018 07:00:00 | 17.70°C | Sudoeste |15.00 km/h | 94.00% | 1007.00 hPa
  • 14-10-2018 06:00:00 | 18.90°C | Oeste |21.00 km/h | 92.00% | 1006.80 hPa
  • 14-10-2018 05:00:00 | 19.20°C | Oeste |12.00 km/h | 90.00% | 1006.30 hPa
  • 14-10-2018 04:00:00 | 21.60°C | Sur |23.00 km/h | 74.00% | 1005.70 hPa
  • 14-10-2018 03:00:00 | 20.90°C | Sudoeste |17.00 km/h | 76.00% | 1006.50 hPa
  • 14-10-2018 02:00:00 | 20.60°C | Oeste |10.00 km/h | 73.00% | 1006.30 hPa
  • 14-10-2018 01:00:00 | 21.70°C | Sudoeste |9.00 km/h | 69.00% | 1006.60 hPa
  • 14-10-2018 00:00:00 | 22.10°C | Sur |11.00 km/h | 69.00% | 1007.30 hPa
  • 13-10-2018 23:00:00 | 23.30°C | Sudoeste |17.00 km/h | 65.00% | 1008.10 hPa
  • 13-10-2018 22:00:00 | 24.70°C | Sudoeste |13.00 km/h | 56.00% | 1007.80 hPa
  • 13-10-2018 21:00:00 | 26.60°C | Sudoeste |19.00 km/h | 48.00% | 1007.80 hPa
  • 13-10-2018 20:00:00 | 28.20°C | Sudoeste |17.00 km/h | 41.00% | 1008.00 hPa
  • 13-10-2018 19:00:00 | 30.00°C | Sudoeste |21.00 km/h | 36.00% | 1008.40 hPa
  • 13-10-2018 17:00:00 | 32.10°C | Oeste |10.00 km/h | 29.00% | 1008.90 hPa
    • Datos gráficos mensuales de Sevilla Aeropuerto: